createdAt,value
2018-01-13T00:02:19.263Z,35.55
2018-01-13T00:04:48.775Z,35.54
2018-01-13T00:07:16.235Z,35.59
2018-01-13T00:09:43.816Z,35.75
2018-01-13T00:12:11.211Z,35.66
2018-01-13T00:14:38.633Z,35.64
2018-01-13T00:17:06.000Z,35.65
2018-01-13T00:19:33.416Z,35.50
2018-01-13T00:22:00.806Z,35.48
2018-01-13T00:24:28.204Z,35.44
2018-01-13T00:26:55.589Z,35.48
2018-01-13T00:29:22.989Z,35.62
2018-01-13T00:31:50.631Z,35.64
2018-01-13T00:34:18.032Z,35.40
2018-01-13T00:36:45.453Z,35.40
2018-01-13T00:39:12.792Z,35.42
2018-01-13T00:41:40.258Z,35.46
2018-01-13T00:44:07.621Z,35.54
2018-01-13T00:46:35.023Z,35.47
2018-01-13T00:49:02.472Z,35.49
2018-01-13T00:51:29.847Z,35.27
2018-01-13T00:53:57.237Z,35.69
2018-01-13T00:56:24.639Z,35.54
2018-01-13T00:58:52.020Z,35.39
2018-01-13T01:01:19.422Z,35.51
2018-01-13T01:03:46.812Z,35.46
2018-01-13T01:06:14.276Z,35.44
2018-01-13T01:08:41.747Z,35.50
2018-01-13T01:11:09.134Z,35.42
2018-01-13T01:13:36.497Z,35.33
2018-01-13T01:16:04.564Z,35.35
2018-01-13T01:18:31.946Z,35.48
2018-01-13T01:20:59.420Z,35.45
2018-01-13T01:23:26.807Z,35.39
2018-01-13T01:25:54.195Z,35.49
2018-01-13T01:28:21.574Z,35.37
2018-01-13T01:30:48.968Z,35.34
2018-01-13T01:33:16.590Z,35.60
2018-01-13T01:35:44.051Z,35.25
2018-01-13T01:38:11.433Z,35.15
2018-01-13T01:40:38.896Z,35.06
2018-01-13T01:43:06.300Z,35.07
2018-01-13T01:45:33.706Z,35.29
2018-01-13T01:48:01.099Z,35.37
2018-01-13T01:50:28.599Z,35.46
2018-01-13T01:52:56.002Z,35.27
2018-01-13T01:55:23.378Z,35.16
2018-01-13T01:57:50.757Z,35.29
2018-01-13T02:00:18.184Z,35.15
2018-01-13T02:02:45.653Z,35.23
2018-01-13T02:05:13.051Z,35.14
2018-01-13T02:07:40.414Z,35.06
2018-01-13T02:10:07.821Z,35.10
2018-01-13T02:12:35.181Z,34.94
2018-01-13T02:15:03.353Z,34.92
2018-01-13T02:17:30.802Z,34.91
2018-01-13T02:19:58.214Z,34.81
2018-01-13T02:22:25.608Z,34.94
2018-01-13T02:24:53.020Z,34.79
2018-01-13T02:27:20.536Z,34.75
2018-01-13T02:29:48.070Z,34.72
2018-01-13T02:32:15.418Z,34.69
2018-01-13T02:34:42.828Z,34.67
2018-01-13T02:37:10.265Z,34.56
2018-01-13T02:39:37.661Z,34.47
2018-01-13T02:42:05.122Z,34.47
2018-01-13T02:44:32.513Z,34.72
2018-01-13T02:46:59.875Z,34.51
2018-01-13T02:49:27.289Z,34.39
2018-01-13T02:51:54.696Z,34.43
2018-01-13T02:54:22.195Z,34.62
2018-01-13T02:56:49.557Z,34.65
2018-01-13T02:59:16.949Z,34.48
2018-01-13T03:01:45.241Z,34.18
2018-01-13T03:04:12.695Z,34.41
2018-01-13T03:06:40.277Z,34.34
2018-01-13T03:09:07.622Z,34.26
2018-01-13T03:11:35.093Z,34.18
2018-01-13T03:14:02.494Z,34.35
2018-01-13T03:16:29.886Z,34.35
2018-01-13T03:18:57.256Z,34.55
2018-01-13T03:21:24.672Z,34.12
2018-01-13T03:23:52.038Z,34.24
2018-01-13T03:26:19.404Z,34.17
2018-01-13T03:28:47.028Z,34.14
2018-01-13T03:31:14.469Z,34.28
2018-01-13T03:33:41.838Z,34.10
2018-01-13T03:36:09.396Z,34.10
2018-01-13T03:38:36.748Z,34.13
2018-01-13T03:41:04.117Z,34.22
2018-01-13T03:43:32.327Z,34.05
2018-01-13T03:45:59.688Z,34.05
2018-01-13T03:48:27.137Z,33.91
2018-01-13T03:50:54.515Z,34.07
2018-01-13T03:53:21.950Z,33.99
2018-01-13T03:55:49.357Z,34.01
2018-01-13T03:58:16.794Z,34.27
2018-01-13T04:00:44.318Z,34.03
2018-01-13T04:03:11.708Z,34.14
2018-01-13T04:05:39.163Z,34.13
2018-01-13T04:08:06.639Z,34.06
2018-01-13T04:10:34.002Z,34.05
2018-01-13T04:13:01.407Z,34.08
2018-01-13T04:15:28.963Z,34.15
2018-01-13T04:17:56.404Z,34.04
2018-01-13T04:20:23.771Z,34.05
2018-01-13T04:22:51.177Z,34.07
2018-01-13T04:25:18.556Z,34.02
2018-01-13T04:27:45.985Z,34.00
2018-01-13T04:30:13.351Z,34.18
2018-01-13T04:32:40.708Z,34.03
2018-01-13T04:35:08.124Z,34.09
2018-01-13T04:37:35.594Z,34.09
2018-01-13T04:40:04.154Z,33.92
2018-01-13T04:42:31.567Z,33.98
2018-01-13T04:44:59.155Z,34.06
2018-01-13T04:47:26.486Z,34.19
2018-01-13T04:49:53.919Z,34.04
2018-01-13T04:52:21.306Z,33.84
2018-01-13T04:54:48.681Z,34.10
2018-01-13T04:57:16.093Z,34.04
2018-01-13T04:59:43.519Z,34.19
2018-01-13T05:02:10.898Z,33.92
2018-01-13T05:04:38.405Z,33.88
2018-01-13T05:07:05.849Z,33.99
2018-01-13T05:09:33.205Z,33.71
2018-01-13T05:12:00.585Z,33.71
2018-01-13T05:14:28.143Z,33.51
2018-01-13T05:16:55.563Z,33.71
2018-01-13T05:19:23.077Z,33.48
2018-01-13T05:21:50.548Z,33.37
2018-01-13T05:24:17.910Z,33.51
2018-01-13T05:26:45.478Z,33.41
2018-01-13T05:29:12.879Z,33.30
2018-01-13T05:31:40.230Z,33.40
2018-01-13T05:34:07.624Z,33.35
2018-01-13T05:36:34.986Z,33.34
2018-01-13T05:39:02.382Z,33.33
2018-01-13T05:41:29.732Z,33.19
2018-01-13T05:43:57.169Z,33.49
2018-01-13T05:46:24.578Z,33.43
2018-01-13T05:48:51.939Z,33.37
2018-01-13T05:51:19.329Z,33.36
2018-01-13T05:53:46.675Z,33.38
2018-01-13T05:56:14.104Z,33.32
2018-01-13T05:58:41.465Z,33.21
2018-01-13T06:01:08.938Z,33.34
2018-01-13T06:03:36.325Z,33.34
2018-01-13T06:06:03.757Z,33.39
2018-01-13T06:08:31.136Z,33.38
2018-01-13T06:10:58.551Z,33.28
2018-01-13T06:13:25.896Z,33.27
2018-01-13T06:15:53.309Z,33.13
2018-01-13T06:18:20.718Z,33.21
2018-01-13T06:20:48.121Z,33.25
2018-01-13T06:23:15.642Z,33.32
2018-01-13T06:25:43.088Z,33.36
2018-01-13T06:28:10.493Z,33.18
2018-01-13T06:30:38.082Z,33.24
2018-01-13T06:33:05.435Z,33.32
2018-01-13T06:35:32.807Z,33.33
2018-01-13T06:38:00.202Z,33.10
2018-01-13T06:40:27.562Z,33.31
2018-01-13T06:42:54.954Z,33.21
2018-01-13T06:45:22.299Z,33.28
2018-01-13T06:47:50.005Z,33.30
2018-01-13T06:50:17.467Z,33.23
2018-01-13T06:52:44.946Z,33.19
2018-01-13T06:55:12.434Z,33.31
2018-01-13T06:57:39.927Z,33.35
2018-01-13T07:00:07.302Z,33.37
2018-01-13T07:02:34.773Z,33.38
2018-01-13T07:05:02.221Z,33.47
2018-01-13T07:07:29.596Z,33.28
2018-01-13T07:09:56.976Z,33.48
2018-01-13T07:12:24.343Z,33.50
2018-01-13T07:14:51.727Z,33.53
2018-01-13T07:17:19.129Z,33.63
2018-01-13T07:19:46.516Z,33.63
2018-01-13T07:22:14.015Z,33.73
2018-01-13T07:24:41.390Z,33.66
2018-01-13T07:27:08.804Z,33.71
2018-01-13T07:29:36.266Z,33.69
2018-01-13T07:32:03.687Z,33.66
2018-01-13T07:34:31.031Z,33.77
2018-01-13T07:36:58.559Z,33.74
2018-01-13T07:39:25.953Z,33.83
2018-01-13T07:41:53.419Z,33.87
2018-01-13T07:44:20.801Z,33.85
2018-01-13T07:46:48.186Z,33.79
2018-01-13T07:49:15.552Z,33.84
2018-01-13T07:51:42.989Z,33.83
2018-01-13T07:54:10.366Z,34.00
2018-01-13T07:56:37.866Z,33.86
2018-01-13T07:59:05.318Z,33.98
2018-01-13T08:01:32.686Z,33.97
2018-01-13T08:04:00.066Z,34.01
2018-01-13T08:06:27.421Z,33.89
2018-01-13T08:08:54.884Z,34.05
2018-01-13T08:11:22.279Z,34.04
2018-01-13T08:13:49.674Z,34.02
2018-01-13T08:16:17.173Z,34.14
2018-01-13T08:18:44.547Z,34.06
2018-01-13T08:21:11.900Z,34.05
2018-01-13T08:23:39.479Z,34.08
2018-01-13T08:26:06.851Z,34.15
2018-01-13T08:28:34.246Z,34.07
2018-01-13T08:31:01.705Z,34.13
2018-01-13T08:33:29.087Z,34.23
2018-01-13T08:35:57.542Z,34.18
2018-01-13T08:38:24.941Z,34.19
2018-01-13T08:40:52.393Z,34.00
2018-01-13T08:43:19.906Z,34.15
2018-01-13T08:45:47.380Z,34.08
2018-01-13T08:48:14.890Z,33.84
2018-01-13T08:50:42.331Z,34.10
2018-01-13T08:53:09.973Z,34.07
2018-01-13T08:55:37.337Z,33.94
2018-01-13T08:58:04.816Z,34.00
2018-01-13T09:00:32.165Z,34.10
2018-01-13T09:02:59.521Z,34.01
2018-01-13T09:05:26.914Z,34.05
2018-01-13T09:07:54.294Z,34.12
2018-01-13T09:10:21.725Z,34.06
2018-01-13T09:12:49.224Z,34.09
2018-01-13T09:15:16.598Z,34.12
2018-01-13T09:17:44.011Z,34.16
2018-01-13T09:20:11.408Z,33.86
2018-01-13T09:22:38.820Z,34.02
2018-01-13T09:25:06.239Z,34.10
2018-01-13T09:27:33.688Z,34.12
2018-01-13T09:30:01.065Z,34.17
2018-01-13T09:32:28.474Z,34.17
2018-01-13T09:34:55.861Z,34.12
2018-01-13T09:37:23.267Z,34.08
2018-01-13T09:39:50.751Z,33.93
2018-01-13T09:42:18.229Z,33.94
2018-01-13T09:44:46.949Z,33.97
2018-01-13T09:47:14.569Z,34.14
2018-01-13T09:49:42.036Z,34.17
2018-01-13T09:52:09.557Z,34.07
2018-01-13T09:54:37.010Z,34.23
2018-01-13T09:57:04.361Z,34.19
2018-01-13T09:59:32.181Z,34.17
2018-01-13T10:01:59.578Z,34.31
2018-01-13T10:04:26.978Z,34.22
2018-01-13T10:09:28.232Z,34.24
2018-01-13T10:11:55.634Z,34.11
2018-01-13T10:14:23.226Z,34.12
2018-01-13T10:16:50.704Z,34.17
2018-01-13T10:19:18.176Z,34.19
2018-01-13T10:21:45.643Z,34.18
2018-01-13T10:24:13.012Z,34.07
2018-01-13T10:26:40.442Z,34.10
2018-01-13T10:29:07.832Z,34.16
2018-01-13T10:31:35.205Z,34.49
2018-01-13T10:34:02.593Z,34.37
2018-01-13T10:36:29.935Z,34.52
2018-01-13T10:38:57.325Z,34.35
2018-01-13T10:41:24.729Z,34.55
2018-01-13T10:43:52.062Z,34.43
2018-01-13T10:46:19.622Z,34.33
2018-01-13T10:48:47.049Z,34.13
2018-01-13T10:51:14.516Z,34.23
2018-01-13T10:53:41.898Z,34.26
2018-01-13T10:56:09.344Z,34.41
2018-01-13T10:58:36.725Z,34.04
2018-01-13T11:01:04.125Z,34.22
2018-01-13T11:03:31.547Z,34.08
2018-01-13T11:05:58.900Z,33.99
2018-01-13T11:08:26.310Z,33.87
2018-01-13T11:10:53.666Z,33.99
2018-01-13T11:13:21.088Z,33.75
2018-01-13T11:15:48.523Z,33.72
2018-01-13T11:18:15.935Z,33.77
2018-01-13T11:20:43.342Z,33.61
2018-01-13T11:23:10.678Z,33.56
2018-01-13T11:25:38.059Z,33.74
2018-01-13T11:28:05.450Z,33.83
2018-01-13T11:30:32.821Z,33.79
2018-01-13T11:33:00.205Z,34.20
2018-01-13T11:35:27.637Z,33.71
2018-01-13T11:37:54.999Z,33.64
2018-01-13T11:40:22.330Z,33.71
2018-01-13T11:42:49.728Z,34.03
2018-01-13T11:45:17.090Z,33.82
2018-01-13T11:47:44.458Z,33.84
2018-01-13T11:50:11.915Z,33.88
2018-01-13T11:52:39.313Z,34.08
2018-01-13T11:55:06.749Z,33.93
2018-01-13T11:57:34.256Z,33.92
2018-01-13T12:00:01.633Z,33.99
2018-01-13T12:02:29.056Z,33.68
2018-01-13T12:04:56.484Z,33.45
2018-01-13T12:07:23.863Z,33.76
2018-01-13T12:09:51.282Z,34.91
2018-01-13T12:12:18.687Z,34.08
2018-01-13T12:14:46.117Z,34.08
2018-01-13T12:17:13.517Z,33.76
2018-01-13T12:19:40.949Z,34.17
2018-01-13T12:22:08.406Z,34.15
2018-01-13T12:24:35.842Z,34.13
2018-01-13T12:27:03.250Z,34.08
2018-01-13T12:29:30.790Z,34.11
2018-01-13T12:31:58.206Z,34.10
2018-01-13T12:34:25.606Z,34.56
2018-01-13T12:36:53.127Z,34.12
2018-01-13T12:39:20.559Z,34.76
2018-01-13T12:41:47.938Z,34.46
2018-01-13T12:44:15.432Z,34.13
2018-01-13T12:46:42.952Z,34.05
2018-01-13T12:49:10.539Z,33.88
2018-01-13T12:51:37.966Z,33.85
2018-01-13T12:54:05.365Z,33.70
2018-01-13T12:56:32.850Z,33.72
2018-01-13T12:59:00.230Z,33.71
2018-01-13T13:01:27.749Z,33.65
2018-01-13T13:03:55.138Z,33.60
2018-01-13T13:06:22.550Z,33.86
2018-01-13T13:08:49.950Z,33.48
2018-01-13T13:11:17.358Z,33.50
2018-01-13T13:13:44.763Z,33.64
2018-01-13T13:16:12.624Z,33.58
2018-01-13T13:18:40.086Z,33.87
2018-01-13T13:21:07.529Z,34.09
2018-01-13T13:23:34.905Z,34.18
2018-01-13T13:26:02.314Z,34.15
2018-01-13T13:28:29.720Z,34.23
2018-01-13T13:30:57.177Z,34.35
2018-01-13T13:33:24.577Z,34.15
2018-01-13T13:35:52.007Z,34.33
2018-01-13T13:38:19.528Z,34.21
2018-01-13T13:40:46.908Z,34.13
2018-01-13T13:43:14.325Z,34.16
2018-01-13T13:45:41.731Z,33.87
2018-01-13T13:48:09.247Z,34.14
2018-01-13T13:50:36.755Z,34.12
2018-01-13T13:53:04.161Z,33.89
2018-01-13T13:55:31.548Z,34.22
2018-01-13T13:57:59.020Z,33.97
2018-01-13T14:00:26.458Z,34.27
2018-01-13T14:02:53.880Z,34.29
2018-01-13T14:05:21.303Z,34.21
2018-01-13T14:07:48.691Z,34.11
2018-01-13T14:10:16.110Z,34.29
2018-01-13T14:12:43.555Z,34.25
2018-01-13T14:15:11.021Z,34.05
2018-01-13T14:17:38.432Z,34.19
2018-01-13T14:20:05.830Z,34.09
2018-01-13T14:22:33.267Z,34.20
2018-01-13T14:25:00.643Z,34.11
2018-01-13T14:27:28.197Z,34.20
2018-01-13T14:29:55.559Z,34.04
2018-01-13T14:32:23.021Z,34.07
2018-01-13T14:34:50.384Z,34.25
2018-01-13T14:37:17.720Z,34.31
2018-01-13T14:39:45.170Z,34.22
2018-01-13T14:42:12.535Z,34.15
2018-01-13T14:44:40.125Z,34.17
2018-01-13T14:47:07.586Z,33.94
2018-01-13T14:49:34.965Z,34.10
2018-01-13T14:52:02.423Z,34.00
2018-01-13T14:54:29.775Z,34.06
2018-01-13T14:56:57.394Z,33.98
2018-01-13T14:59:24.953Z,34.17
2018-01-13T15:04:25.669Z,33.85
2018-01-13T15:06:53.084Z,34.03
2018-01-13T15:09:20.591Z,33.94
2018-01-13T15:11:48.122Z,34.32
2018-01-13T15:14:15.761Z,33.97
2018-01-13T15:16:43.179Z,34.04
2018-01-13T15:19:11.489Z,34.10
2018-01-13T15:21:38.950Z,34.12
2018-01-13T15:24:06.325Z,34.12
2018-01-13T15:26:33.747Z,34.12
2018-01-13T15:29:01.158Z,34.01
2018-01-13T15:31:28.507Z,34.21
2018-01-13T15:33:55.928Z,34.01
2018-01-13T15:36:23.347Z,34.09
2018-01-13T15:38:50.776Z,33.89
2018-01-13T15:41:18.233Z,34.08
2018-01-13T15:43:45.682Z,34.03
2018-01-13T15:46:13.105Z,34.05
2018-01-13T15:48:40.574Z,34.13
2018-01-13T15:51:07.947Z,34.14
2018-01-13T15:53:35.350Z,34.19
2018-01-13T15:56:02.752Z,34.04
2018-01-13T15:58:30.206Z,34.08
2018-01-13T16:00:57.650Z,33.96
2018-01-13T16:03:25.061Z,34.05
2018-01-13T16:05:52.475Z,34.04
2018-01-13T16:08:19.841Z,33.90
2018-01-13T16:10:47.296Z,34.02
2018-01-13T16:13:14.727Z,34.10
2018-01-13T16:15:42.209Z,34.18
2018-01-13T16:18:09.728Z,34.10
2018-01-13T16:20:37.140Z,34.18
2018-01-13T16:23:04.546Z,33.68
2018-01-13T16:25:31.919Z,34.00
2018-01-13T16:27:59.343Z,34.11
2018-01-13T16:30:27.422Z,34.03
2018-01-13T16:32:54.794Z,33.89
2018-01-13T16:35:22.225Z,33.84
2018-01-13T16:37:49.562Z,33.96
2018-01-13T16:40:17.926Z,33.92
2018-01-13T16:42:45.307Z,33.94
2018-01-13T16:45:12.674Z,33.85
2018-01-13T16:47:40.128Z,33.82
2018-01-13T16:50:07.482Z,34.07
2018-01-13T16:52:34.886Z,34.01
2018-01-13T16:55:02.305Z,33.86
2018-01-13T16:57:29.739Z,34.00
2018-01-13T16:59:57.342Z,33.93
2018-01-13T17:02:24.747Z,34.13
2018-01-13T17:04:52.144Z,33.81
2018-01-13T17:07:19.543Z,34.00
2018-01-13T17:09:46.912Z,33.83
2018-01-13T17:12:14.309Z,33.90
2018-01-13T17:14:41.714Z,33.87
2018-01-13T17:17:09.226Z,33.89
2018-01-13T17:19:36.566Z,34.01
2018-01-13T17:22:03.977Z,33.89
2018-01-13T17:24:31.334Z,33.94
2018-01-13T17:26:58.725Z,33.92
2018-01-13T17:29:26.126Z,33.92
2018-01-13T17:31:53.630Z,33.94
2018-01-13T17:34:21.116Z,33.81
2018-01-13T17:36:48.577Z,33.82
2018-01-13T17:39:15.922Z,33.76
2018-01-13T17:41:43.330Z,33.85
2018-01-13T17:44:10.710Z,33.66
2018-01-13T17:46:38.098Z,33.97
2018-01-13T17:49:05.525Z,34.04
2018-01-13T17:51:33.143Z,34.08
2018-01-13T17:54:00.632Z,34.23
2018-01-13T17:56:28.139Z,34.00
2018-01-13T17:58:55.525Z,34.20
2018-01-13T18:01:22.863Z,34.28
2018-01-13T18:03:50.215Z,34.06
2018-01-13T18:06:17.598Z,34.28
2018-01-13T18:08:45.026Z,34.00
2018-01-13T18:11:12.473Z,34.10
2018-01-13T18:13:39.854Z,34.18
2018-01-13T18:16:07.269Z,34.17
2018-01-13T18:18:34.697Z,34.30
2018-01-13T18:21:02.052Z,34.23
2018-01-13T18:23:29.433Z,34.10
2018-01-13T18:25:56.833Z,34.09
2018-01-13T18:28:24.210Z,34.04
2018-01-13T18:30:51.566Z,34.10
2018-01-13T18:33:19.036Z,34.25
2018-01-13T18:35:46.710Z,34.12
2018-01-13T18:38:14.079Z,34.03
2018-01-13T18:40:41.594Z,34.09
2018-01-13T18:43:08.962Z,34.02
2018-01-13T18:45:36.361Z,34.09
2018-01-13T18:48:03.735Z,34.02
2018-01-13T18:50:31.137Z,34.28
2018-01-13T18:52:58.600Z,34.22
2018-01-13T18:55:26.605Z,34.07
2018-01-13T18:57:54.367Z,34.13
2018-01-13T19:00:21.874Z,34.15
2018-01-13T19:02:49.275Z,34.06
2018-01-13T19:05:16.694Z,33.89
2018-01-13T19:07:44.050Z,33.98
2018-01-13T19:10:11.441Z,33.85
2018-01-13T19:12:38.837Z,33.86
2018-01-13T19:15:06.280Z,33.92
2018-01-13T19:17:33.737Z,34.13
2018-01-13T19:20:01.324Z,34.07
2018-01-13T19:22:28.715Z,33.91
2018-01-13T19:24:56.341Z,33.86
2018-01-13T19:27:23.746Z,33.81
2018-01-13T19:29:51.115Z,33.88
2018-01-13T19:32:18.642Z,33.71
2018-01-13T19:34:46.138Z,33.78
2018-01-13T19:37:13.526Z,33.62
2018-01-13T19:39:41.007Z,33.72
2018-01-13T19:42:08.402Z,33.80
2018-01-13T19:47:09.128Z,33.62
2018-01-13T19:49:36.493Z,33.59
2018-01-13T19:52:03.889Z,33.45
2018-01-13T19:54:31.241Z,33.70
2018-01-13T19:56:58.629Z,33.52
2018-01-13T19:59:26.013Z,33.65
2018-01-13T20:01:53.398Z,33.58
2018-01-13T20:04:20.819Z,33.58
2018-01-13T20:06:48.226Z,33.43
2018-01-13T20:09:15.762Z,33.47
2018-01-13T20:11:43.170Z,33.48
2018-01-13T20:14:10.621Z,33.43
2018-01-13T20:16:38.023Z,33.61
2018-01-13T20:19:05.464Z,33.52
2018-01-13T20:21:32.856Z,33.48
2018-01-13T20:24:00.306Z,33.61
2018-01-13T20:26:27.859Z,33.31
2018-01-13T20:28:55.222Z,33.35
2018-01-13T20:31:22.638Z,33.16
2018-01-13T20:33:49.995Z,33.29
2018-01-13T20:36:17.393Z,33.29
2018-01-13T20:38:44.814Z,33.22
2018-01-13T20:41:12.177Z,33.18
2018-01-13T20:43:39.643Z,33.18
2018-01-13T20:46:06.999Z,33.22
2018-01-13T20:48:34.354Z,33.14
2018-01-13T20:51:01.763Z,33.23
2018-01-13T20:53:29.130Z,33.12
2018-01-13T20:55:56.594Z,33.11
2018-01-13T20:58:24.023Z,33.10
2018-01-13T21:00:51.370Z,33.19
2018-01-13T21:03:18.796Z,33.10
2018-01-13T21:05:46.148Z,33.12
2018-01-13T21:08:13.559Z,33.15
2018-01-13T21:10:41.346Z,32.98
2018-01-13T21:13:08.742Z,33.05
2018-01-13T21:15:36.218Z,33.03
2018-01-13T21:18:03.580Z,33.19
2018-01-13T21:20:30.992Z,33.06
2018-01-13T21:22:58.384Z,33.15
2018-01-13T21:25:25.818Z,33.18
2018-01-13T21:27:53.322Z,33.13
2018-01-13T21:30:20.687Z,33.16
2018-01-13T21:32:48.151Z,32.92
2018-01-13T21:35:15.563Z,33.16
2018-01-13T21:37:42.961Z,32.95
2018-01-13T21:40:10.324Z,33.08
2018-01-13T21:42:37.927Z,33.07
2018-01-13T21:45:05.381Z,32.99
2018-01-13T21:47:32.717Z,33.01
2018-01-13T21:50:00.063Z,32.89
2018-01-13T21:52:27.626Z,32.75
2018-01-13T21:54:54.966Z,32.77
2018-01-13T21:57:22.366Z,33.00
2018-01-13T21:59:49.757Z,32.87
2018-01-13T22:02:17.117Z,32.83
2018-01-13T22:04:44.526Z,33.02
2018-01-13T22:07:11.904Z,32.78
2018-01-13T22:09:39.337Z,32.74
2018-01-13T22:12:06.782Z,32.80
2018-01-13T22:14:34.159Z,32.68
2018-01-13T22:17:01.634Z,32.98
2018-01-13T22:19:29.041Z,32.71
2018-01-13T22:21:56.474Z,32.72
2018-01-13T22:24:24.061Z,32.81
2018-01-13T22:26:51.480Z,32.59
2018-01-13T22:29:18.856Z,32.53
2018-01-13T22:31:46.264Z,32.54
2018-01-13T22:34:13.631Z,32.60
2018-01-13T22:36:41.025Z,32.73
2018-01-13T22:39:08.440Z,32.62
2018-01-13T22:41:35.821Z,32.46
2018-01-13T22:44:03.227Z,32.57
2018-01-13T22:46:30.587Z,32.31
2018-01-13T22:48:57.954Z,32.39
2018-01-13T22:51:25.340Z,32.27
2018-01-13T22:53:52.735Z,32.39
2018-01-13T22:56:20.083Z,32.44
2018-01-13T22:58:47.476Z,32.37
2018-01-13T23:01:14.837Z,32.47
2018-01-13T23:03:42.189Z,32.44
2018-01-13T23:06:09.604Z,32.24
2018-01-13T23:08:37.057Z,32.24
2018-01-13T23:11:04.425Z,32.20
2018-01-13T23:13:31.819Z,32.16
2018-01-13T23:15:59.218Z,32.35
2018-01-13T23:18:26.705Z,32.06
2018-01-13T23:20:54.067Z,32.20
2018-01-13T23:23:21.429Z,32.14
2018-01-13T23:25:48.826Z,31.99
2018-01-13T23:28:16.290Z,32.14
2018-01-13T23:30:43.727Z,32.06
2018-01-13T23:33:11.311Z,32.11
2018-01-13T23:35:38.955Z,32.13
2018-01-13T23:38:06.438Z,32.12
2018-01-13T23:40:33.902Z,32.18
2018-01-13T23:43:01.406Z,32.25
2018-01-13T23:45:28.862Z,32.24
2018-01-13T23:47:56.285Z,32.12
2018-01-13T23:50:23.819Z,32.06
2018-01-13T23:52:51.186Z,31.96
2018-01-13T23:55:18.589Z,32.23
2018-01-13T23:57:46.051Z,32.01
